Time;durP1;ratioP1;P1;durP2;ratioP2;P2;SDS_P1;SDS_P2;PMS_P1;PMS_P2;Temp;Humidity;BMP_temperature;BMP_pressure;BME280_temperature;BME280_humidity;BME280_pressure;Samples;Min_cycle;Max_cycle;Signal;HPM_P1;HPM_P2
2021/09/08 00:00:20;;;;;;;10.32;9.00;;;;;;;17.10;72.54;101296.94;699479;28;4288;-51
2021/09/08 00:00:41;;;;;;;10.38;8.63;;;;;;;17.11;72.49;101293.41;699717;28;3920;-54
2021/09/08 00:01:02;;;;;;;10.32;8.65;;;;;;;17.13;72.33;101295.09;697893;28;4521;-55
2021/09/08 00:01:22;;;;;;;10.48;8.77;;;;;;;17.16;72.19;101297.69;699489;28;1700;-54
2021/09/08 00:01:42;;;;;;;10.37;8.93;;;;;;;17.18;72.47;101295.88;698599;28;1609;-51
2021/09/08 00:02:03;;;;;;;10.98;9.23;;;;;;;17.21;71.92;101294.97;699422;28;1457;-55
2021/09/08 00:02:24;;;;;;;10.60;9.00;;;;;;;17.23;71.99;101287.84;700796;28;1212;-54
2021/09/08 00:02:44;;;;;;;11.25;9.05;;;;;;;17.21;72.47;101294.97;699769;28;1379;-55
2021/09/08 00:03:04;;;;;;;12.90;9.30;;;;;;;17.16;72.56;101294.19;700787;28;2064;-53
2021/09/08 00:03:25;;;;;;;11.93;9.27;;;;;;;17.15;72.24;101297.72;699485;28;4512;-52
2021/09/08 00:03:45;;;;;;;11.43;8.53;;;;;;;17.17;72.11;101288.84;699106;28;3287;-52
2021/09/08 00:04:06;;;;;;;10.87;8.60;;;;;;;17.21;71.85;101289.66;699150;28;1485;-56
2021/09/08 00:04:26;;;;;;;11.40;8.70;;;;;;;17.23;71.58;101289.63;700834;28;1341;-54
2021/09/08 00:04:47;;;;;;;12.95;9.13;;;;;;;17.26;71.66;101292.19;699844;28;1431;-53
2021/09/08 00:05:09;;;;;;;12.37;9.37;;;;;;;17.28;71.60;101290.38;699779;28;1424;-55
2021/09/08 00:05:30;;;;;;;12.65;9.40;;;;;;;17.27;71.53;101284.22;699308;28;1337;-52
2021/09/08 00:05:50;;;;;;;11.30;9.03;;;;;;;17.23;71.29;101287.84;700325;28;1331;-55
2021/09/08 00:06:11;;;;;;;12.52;9.15;;;;;;;17.22;71.57;101290.53;699620;28;4467;-54
2021/09/08 00:06:31;;;;;;;11.93;9.27;;;;;;;17.17;72.15;101288.84;699356;28;4147;-55
2021/09/08 00:06:51;;;;;;;11.88;8.90;;;;;;;17.12;71.96;101284.59;699602;28;2156;-53
2021/09/08 00:07:12;;;;;;;12.10;9.30;;;;;;;17.15;71.91;101284.50;699122;28;1574;-52
2021/09/08 00:07:32;;;;;;;11.73;9.20;;;;;;;17.19;71.69;101286.19;698720;28;1518;-51
2021/09/08 00:07:53;;;;;;;10.57;8.80;;;;;;;17.23;71.85;101289.63;700468;28;1297;-52
2021/09/08 00:08:13;;;;;;;10.48;9.07;;;;;;;17.24;71.63;101294.88;699928;28;1677;-56
2021/09/08 00:08:33;;;;;;;10.83;9.00;;;;;;;17.25;71.29;101285.16;698767;28;1625;-51
2021/09/08 00:08:54;;;;;;;11.37;8.50;;;;;;;17.23;71.74;101285.19;700752;28;1389;-54
2021/09/08 00:09:16;;;;;;;11.45;8.70;;;;;;;17.17;72.28;101290.63;698604;28;4463;-51
2021/09/08 00:09:37;;;;;;;11.10;8.95;;;;;;;17.16;71.92;101286.25;699317;28;2780;-54
2021/09/08 00:09:58;;;;;;;11.37;8.97;;;;;;;17.17;71.47;101285.34;700240;28;2108;-52
2021/09/08 00:10:18;;;;;;;11.27;8.80;;;;;;;17.19;71.44;101287.03;699942;28;1154;-55
2021/09/08 00:10:38;;;;;;;11.30;8.93;;;;;;;17.21;71.61;101283.50;700487;28;1329;-51
2021/09/08 00:10:59;;;;;;;10.27;9.07;;;;;;;17.22;71.47;101283.47;699671;28;1512;-52
2021/09/08 00:11:20;;;;;;;10.80;8.80;;;;;;;17.21;71.73;101283.50;699592;28;1142;-54
2021/09/08 00:11:40;;;;;;;10.67;8.40;;;;;;;17.18;71.56;101290.59;700218;28;4138;-56
2021/09/08 00:12:01;;;;;;;10.52;8.68;;;;;;;17.12;72.79;101280.16;698849;28;3286;-52
2021/09/08 00:12:21;;;;;;;11.53;9.00;;;;;;;17.09;72.36;101289.94;699059;28;4543;-55
2021/09/08 00:12:42;;;;;;;10.17;8.77;;;;;;;17.10;72.14;101287.25;699967;28;4361;-51
2021/09/08 00:13:02;;;;;;;10.17;8.67;;;;;;;17.11;72.17;101288.13;700199;28;1223;-55
2021/09/08 00:13:24;;;;;;;10.63;9.25;;;;;;;17.14;71.86;101288.03;699775;28;1756;-56
2021/09/08 00:13:44;;;;;;;11.20;9.30;;;;;;;17.14;71.92;101283.66;699624;28;1556;-53
2021/09/08 00:14:05;;;;;;;11.83;9.07;;;;;;;17.18;71.77;101289.72;700020;28;1395;-56
2021/09/08 00:14:25;;;;;;;12.23;8.87;;;;;;;17.12;73.51;101289.88;701168;28;1182;-52
2021/09/08 00:14:46;;;;;;;11.48;9.00;;;;;;;17.08;72.70;101278.47;699336;28;3612;-55
2021/09/08 00:15:08;;;;;;;11.63;8.93;;;;;;;17.11;72.51;101286.38;698820;28;1874;-53
2021/09/08 00:15:29;;;;;;;11.32;9.30;;;;;;;17.15;72.10;101284.50;698081;28;4655;-51
2021/09/08 00:15:49;;;;;;;12.02;9.52;;;;;;;17.15;72.19;101288.00;699223;28;1551;-51
2021/09/08 00:16:10;;;;;;;10.83;9.07;;;;;;;17.15;71.97;101284.50;699754;28;1316;-55
2021/09/08 00:16:30;;;;;;;10.02;8.73;;;;;;;17.18;71.68;101289.72;700178;28;1631;-52
2021/09/08 00:16:51;;;;;;;10.87;9.37;;;;;;;17.15;72.86;101284.50;701075;28;1750;-52
2021/09/08 00:17:11;;;;;;;10.95;9.07;;;;;;;17.11;72.92;101282.84;699828;28;1596;-52
2021/09/08 00:17:34;;;;;;;11.37;9.00;;;;;;;17.01;73.93;101283.03;700116;28;4113;-54
2021/09/08 00:17:55;;;;;;;11.35;8.95;;;;;;;16.97;73.22;101281.34;699338;28;4709;-54
2021/09/08 00:18:15;;;;;;;11.48;9.23;;;;;;;17.01;72.95;101279.53;698365;28;4574;-53
2021/09/08 00:18:36;;;;;;;10.90;8.93;;;;;;;17.06;72.43;101287.34;700164;28;1512;-53
2021/09/08 00:18:56;;;;;;;10.85;8.98;;;;;;;17.05;72.63;101286.47;699621;28;1617;-52
2021/09/08 00:19:16;;;;;;;10.53;8.80;;;;;;;17.03;73.01;101290.94;698904;28;1734;-53
2021/09/08 00:19:37;;;;;;;10.38;8.60;;;;;;;16.99;72.88;101289.28;700210;28;1426;-55
2021/09/08 00:19:59;;;;;;;10.65;9.00;;;;;;;17.01;72.45;101288.31;700206;28;1767;-56
2021/09/08 00:20:20;;;;;;;10.77;8.90;;;;;;;17.05;73.15;101288.28;699741;28;3936;-57
2021/09/08 00:20:40;;;;;;;11.20;8.70;;;;;;;17.08;72.30;101289.06;699177;28;1863;-51
2021/09/08 00:21:00;;;;;;;10.20;8.50;;;;;;;17.07;72.57;101292.63;698866;28;3927;-53
2021/09/08 00:21:20;;;;;;;10.55;8.60;;;;;;;17.06;72.28;101290.88;698369;28;4312;-56
2021/09/08 00:21:41;;;;;;;10.00;8.53;;;;;;;17.09;71.92;101284.66;700029;28;1569;-55
2021/09/08 00:22:01;;;;;;;11.70;9.33;;;;;;;17.01;73.19;101288.31;699120;28;1379;-53
2021/09/08 00:22:22;;;;;;;11.82;9.50;;;;;;;16.97;72.85;101284.00;698829;28;1535;-53
2021/09/08 00:22:43;;;;;;;10.40;9.20;;;;;;;16.99;72.53;101298.06;700398;28;1780;-52
2021/09/08 00:23:04;;;;;;;11.38;9.18;;;;;;;17.03;72.38;101290.94;699527;28;1245;-56
2021/09/08 00:23:24;;;;;;;10.98;9.07;;;;;;;17.03;72.60;101285.66;699751;28;4015;-54
2021/09/08 00:23:45;;;;;;;11.13;8.80;;;;;;;17.04;72.16;101295.31;700157;28;1752;-55
2021/09/08 00:24:05;;;;;;;11.43;8.73;;;;;;;17.05;72.11;101283.84;698628;28;1673;-51
2021/09/08 00:24:26;;;;;;;11.63;9.00;;;;;;;17.07;71.97;101287.34;698673;28;4393;-55
2021/09/08 00:24:46;;;;;;;11.90;8.88;;;;;;;17.07;71.98;101289.09;698951;28;1750;-50
2021/09/08 00:25:07;;;;;;;11.23;8.87;;;;;;;17.06;72.06;101295.25;700173;28;1410;-51
2021/09/08 00:25:28;;;;;;;11.77;8.55;;;;;;;17.03;73.01;101290.94;699304;28;1297;-55
2021/09/08 00:25:48;;;;;;;10.85;8.60;;;;;;;17.04;72.19;101287.38;700946;28;1321;-52
2021/09/08 00:26:09;;;;;;;10.80;8.87;;;;;;;17.07;72.22;101289.97;699237;28;4095;-54
2021/09/08 00:26:29;;;;;;;11.85;8.88;;;;;;;17.09;72.14;101289.94;699463;28;1930;-52
2021/09/08 00:26:51;;;;;;;13.30;9.23;;;;;;;17.03;73.86;101285.66;696961;28;1808;-52
2021/09/08 00:27:12;;;;;;;12.15;9.15;;;;;;;16.95;73.57;101292.88;694702;28;4513;-55
2021/09/08 00:27:32;;;;;;;11.02;9.00;;;;;;;16.87;74.05;101289.50;697444;28;1609;-53
2021/09/08 00:27:53;;;;;;;11.93;9.02;;;;;;;16.84;73.53;101282.50;697990;28;1363;-53
2021/09/08 00:28:13;;;;;;;12.30;8.90;;;;;;;16.85;73.22;101292.19;697505;28;1468;-53
2021/09/08 00:28:33;;;;;;;12.83;9.57;;;;;;;16.79;75.06;101287.00;698295;28;1371;-52
2021/09/08 00:28:54;;;;;;;11.77;9.18;;;;;;;16.76;74.63;101289.72;699405;28;3451;-53
2021/09/08 00:29:14;;;;;;;13.43;9.57;;;;;;;16.76;73.71;101290.56;699144;28;4478;-51
2021/09/08 00:29:35;;;;;;;12.07;8.93;;;;;;;16.82;73.28;101284.28;698764;28;1339;-56
2021/09/08 00:29:55;;;;;;;10.50;8.43;;;;;;;16.85;73.10;101287.75;700594;28;1868;-54
2021/09/08 00:30:16;;;;;;;11.65;8.88;;;;;;;16.90;72.84;101285.03;698088;28;4533;-53
2021/09/08 00:30:37;;;;;;;11.43;9.23;;;;;;;16.94;72.58;101283.22;699065;28;1400;-52
2021/09/08 00:30:58;;;;;;;11.75;9.45;;;;;;;16.94;72.57;101286.72;699922;28;1006;-55
2021/09/08 00:31:20;;;;;;;11.05;8.85;;;;;;;17.00;72.30;101291.88;700314;28;1348;-53
2021/09/08 00:31:41;;;;;;;11.63;9.10;;;;;;;17.00;72.97;101283.94;699211;28;4004;-55
2021/09/08 00:32:04;;;;;;;12.00;9.27;;;;;;;16.88;74.57;101284.19;699289;28;4087;-55
2021/09/08 00:32:24;;;;;;;11.90;8.93;;;;;;;16.86;73.33;101280.69;700193;28;1546;-52
2021/09/08 00:32:45;;;;;;;11.63;9.10;;;;;;;16.80;74.71;101283.47;700094;28;1405;-54
2021/09/08 00:33:06;;;;;;;10.27;8.93;;;;;;;16.71;74.70;101278.38;700906;28;1503;-53
2021/09/08 00:33:26;;;;;;;11.55;9.27;;;;;;;16.66;74.48;101289.88;699609;28;4266;-52
2021/09/08 00:33:47;;;;;;;10.87;8.77;;;;;;;16.71;74.17;101283.66;700685;28;1333;-53
2021/09/08 00:34:08;;;;;;;10.52;9.00;;;;;;;16.61;76.03;101283.81;699541;28;1382;-55
2021/09/08 00:34:30;;;;;;;11.13;9.40;;;;;;;16.54;74.91;101282.22;699812;28;4076;-53
2021/09/08 00:34:51;;;;;;;12.13;9.50;;;;;;;16.47;74.65;101283.25;697519;28;4341;-55
2021/09/08 00:35:12;;;;;;;12.03;9.40;;;;;;;16.50;74.67;101276.16;697137;28;1597;-52
2021/09/08 00:35:33;;;;;;;10.63;9.05;;;;;;;16.55;74.51;101278.69;698131;28;1584;-53
2021/09/08 00:35:57;;;;;;;10.38;8.57;;;;;;;16.63;74.01;101279.41;701024;28;1663;-52
2021/09/08 00:36:18;;;;;;;10.45;8.63;;;;;;;16.64;74.46;101280.25;699754;28;4361;-52
2021/09/08 00:36:40;;;;;;;10.85;8.80;;;;;;;16.63;74.25;101276.75;700395;28;1852;-55
2021/09/08 00:37:01;;;;;;;11.20;9.00;;;;;;;16.58;74.33;101278.63;699476;28;1375;-55
2021/09/08 00:37:22;;;;;;;10.68;9.15;;;;;;;16.52;74.90;101281.38;699520;28;3018;-56
2021/09/08 00:37:43;;;;;;;10.07;9.00;;;;;;;16.55;74.77;101277.81;699538;28;1802;-54
2021/09/08 00:38:08;;;;;;;11.25;8.70;;;;;;;16.62;74.05;101276.78;697759;28;4009;-55
2021/09/08 00:38:31;;;;;;;11.25;8.73;;;;;;;16.63;73.80;101275.91;700021;28;1915;-56
2021/09/08 00:38:52;;;;;;;10.77;8.75;;;;;;;16.63;74.34;101275.91;699704;28;1809;-53
2021/09/08 00:39:12;;;;;;;11.33;8.93;;;;;;;16.57;74.66;101273.38;699519;28;4418;-54
2021/09/08 00:39:33;;;;;;;12.13;9.40;;;;;;;16.48;74.85;101277.94;698844;28;1622;-56
2021/09/08 00:39:53;;;;;;;11.80;9.50;;;;;;;16.42;74.87;101278.06;699739;28;1548;-55
2021/09/08 00:40:17;;;;;;;11.35;9.20;;;;;;;16.46;74.32;101277.09;699130;28;3429;-54
2021/09/08 00:40:39;;;;;;;13.27;9.27;;;;;;;16.55;74.02;101276.03;698798;28;1723;-51
2021/09/08 00:41:01;;;;;;;11.57;9.15;;;;;;;16.60;74.02;101276.84;698970;28;1589;-51
2021/09/08 00:41:23;;;;;;;11.63;9.15;;;;;;;16.67;73.69;101277.59;699864;28;1256;-54
2021/09/08 00:41:43;;;;;;;11.10;9.15;;;;;;;16.59;74.41;101272.44;699586;28;1945;-54
2021/09/08 00:42:13;;;;;;;11.30;8.77;;;;;;;16.47;74.68;101268.25;699208;28;1770;-53
2021/09/08 00:42:35;;;;;;;11.85;9.27;;;;;;;16.44;74.57;101264.84;699067;28;4951;-53
2021/09/08 00:42:56;;;;;;;11.40;9.37;;;;;;;16.50;74.16;101270.88;699584;28;1855;-52
2021/09/08 00:43:16;;;;;;;12.43;9.50;;;;;;;16.53;74.22;101269.91;696776;28;4406;-55
2021/09/08 00:43:37;;;;;;;11.55;9.20;;;;;;;16.53;74.49;101275.19;697353;28;3705;-54
2021/09/08 00:44:12;;;;;;;11.80;9.33;;;;;;;16.45;74.90;101267.44;699415;28;1965;-52
2021/09/08 00:44:33;;;;;;;11.65;9.32;;;;;;;16.47;74.65;101272.69;700603;28;1246;-56
2021/09/08 00:44:53;;;;;;;10.98;9.00;;;;;;;16.53;74.25;101269.91;700165;28;1774;-52
2021/09/08 00:45:17;;;;;;;10.52;8.35;;;;;;;16.57;74.03;101274.22;701803;28;4301;-55
2021/09/08 00:45:37;;;;;;;12.32;9.07;;;;;;;16.46;76.09;101273.56;699508;28;1352;-54
2021/09/08 00:45:58;;;;;;;10.90;9.13;;;;;;;16.43;75.16;101268.38;699056;28;3845;-54
2021/09/08 00:46:19;;;;;;;11.30;9.23;;;;;;;16.48;74.77;101263.88;699044;28;3838;-52
2021/09/08 00:46:43;;;;;;;11.18;9.07;;;;;;;16.55;74.35;101268.13;699809;28;1246;-53
2021/09/08 00:47:04;;;;;;;11.20;9.20;;;;;;;16.59;73.91;101269.81;698751;28;1360;-54
2021/09/08 00:47:26;;;;;;;12.18;9.52;;;;;;;16.62;74.25;101267.09;698785;28;1732;-53
2021/09/08 00:47:48;;;;;;;11.95;9.10;;;;;;;16.51;74.86;101271.72;699306;28;1497;-55
2021/09/08 00:48:08;;;;;;;10.88;9.38;;;;;;;16.47;74.54;101275.31;700292;28;4533;-52
2021/09/08 00:48:29;;;;;;;11.27;9.40;;;;;;;16.51;74.38;101261.16;699153;28;1827;-54
2021/09/08 00:48:49;;;;;;;10.57;9.25;;;;;;;16.46;76.11;101268.31;699793;28;4155;-53
2021/09/08 00:49:11;;;;;;;11.50;9.53;;;;;;;16.33;75.55;101268.53;698284;28;2570;-55
2021/09/08 00:49:32;;;;;;;11.32;9.23;;;;;;;16.34;75.31;101270.28;700176;28;1280;-55
2021/09/08 00:49:52;;;;;;;11.68;9.13;;;;;;;16.42;74.77;101266.63;700877;28;1637;-53
2021/09/08 00:50:13;;;;;;;11.47;9.20;;;;;;;16.49;74.70;101269.13;699714;28;1777;-53
2021/09/08 00:50:35;;;;;;;11.05;8.73;;;;;;;16.56;74.19;101272.50;700303;28;1691;-55
2021/09/08 00:50:57;;;;;;;11.07;9.20;;;;;;;16.58;74.48;101264.56;699200;28;1254;-52
2021/09/08 00:51:19;;;;;;;11.75;9.52;;;;;;;16.47;74.95;101270.03;699820;28;4557;-54
2021/09/08 00:51:39;;;;;;;11.37;9.03;;;;;;;16.38;75.33;101264.94;698842;28;3941;-55
2021/09/08 00:52:06;;;;;;;10.80;8.87;;;;;;;16.39;74.72;101264.91;698910;28;1673;-54
2021/09/08 00:52:29;;;;;;;12.60;9.30;;;;;;;16.48;74.50;101266.53;700037;28;1535;-54
2021/09/08 00:52:52;;;;;;;13.68;9.25;;;;;;;16.52;74.12;101270.84;699643;28;1177;-55
2021/09/08 00:53:17;;;;;;;13.02;9.48;;;;;;;16.51;74.52;101269.94;698215;28;1410;-52
2021/09/08 00:53:41;;;;;;;11.52;9.93;;;;;;;16.46;74.71;101269.19;698619;28;1391;-55
2021/09/08 00:54:05;;;;;;;11.05;9.00;;;;;;;16.53;74.19;101272.53;698476;28;1571;-53
2021/09/08 00:54:26;;;;;;;11.45;9.27;;;;;;;16.56;74.03;101261.97;698532;28;4319;-55
2021/09/08 00:54:48;;;;;;;11.90;9.38;;;;;;;16.60;73.98;101260.09;699026;28;2088;-54
2021/09/08 00:55:13;;;;;;;11.15;9.20;;;;;;;16.58;74.15;101262.78;698464;28;1893;-55
2021/09/08 00:55:34;;;;;;;11.68;9.40;;;;;;;16.62;74.09;101260.97;699353;28;1214;-53
2021/09/08 00:55:55;;;;;;;11.75;9.20;;;;;;;16.62;74.09;101268.88;699284;28;1447;-53
2021/09/08 00:56:17;;;;;;;11.68;9.18;;;;;;;16.66;73.82;101267.91;699548;28;1683;-54
2021/09/08 00:56:40;;;;;;;11.48;9.18;;;;;;;16.68;73.94;101264.34;700159;28;1399;-52
2021/09/08 00:57:04;;;;;;;12.05;9.43;;;;;;;16.60;74.92;101268.91;699164;28;1483;-53
2021/09/08 00:57:25;;;;;;;12.20;10.02;;;;;;;16.57;74.44;101268.09;698236;28;4474;-51
2021/09/08 00:57:46;;;;;;;12.15;9.40;;;;;;;16.51;74.42;101262.03;699319;28;3726;-54
2021/09/08 00:58:08;;;;;;;13.98;9.55;;;;;;;16.47;75.29;101262.13;700022;28;2372;-52
2021/09/08 00:58:31;;;;;;;14.13;9.43;;;;;;;16.41;75.97;101264.91;700166;28;1973;-51
2021/09/08 00:58:52;;;;;;;13.05;9.50;;;;;;;16.33;76.16;101263.25;699627;28;1682;-54
2021/09/08 00:59:15;;;;;;;10.90;9.27;;;;;;;16.30;76.47;101265.97;699395;28;1122;-54
2021/09/08 00:59:36;;;;;;;10.90;9.07;;;;;;;16.26;75.43;101261.66;700297;28;1654;-53
2021/09/08 00:59:56;;;;;;;11.07;8.90;;;;;;;16.34;75.45;101257.09;700367;28;3084;-55
2021/09/08 01:00:17;;;;;;;11.07;8.97;;;;;;;16.33;76.25;101263.25;698970;28;4537;-55
2021/09/08 01:00:39;;;;;;;11.20;9.27;;;;;;;16.37;75.01;101257.94;697933;28;1952;-54
2021/09/08 01:01:00;;;;;;;12.73;9.57;;;;;;;16.37;76.22;101266.72;698274;28;1537;-51
2021/09/08 01:01:20;;;;;;;11.48;9.48;;;;;;;16.24;76.68;101260.81;697869;28;1636;-54
2021/09/08 01:01:41;;;;;;;11.73;9.60;;;;;;;16.21;76.32;101263.47;699538;28;1873;-53
2021/09/08 01:02:05;;;;;;;11.85;9.45;;;;;;;16.29;75.41;101266.84;700384;28;1732;-56
2021/09/08 01:02:25;;;;;;;11.97;9.60;;;;;;;16.37;74.87;101257.94;700237;28;1639;-52
2021/09/08 01:02:49;;;;;;;12.88;9.30;;;;;;;16.44;74.92;101262.19;700090;28;3991;-55
2021/09/08 01:03:11;;;;;;;12.02;9.35;;;;;;;16.38;75.79;101257.03;698037;28;4372;-51
2021/09/08 01:03:34;;;;;;;12.25;9.73;;;;;;;16.28;77.13;101254.59;699035;28;3663;-55
2021/09/08 01:03:55;;;;;;;12.50;10.13;;;;;;;16.20;76.51;101267.06;698732;28;1455;-52
2021/09/08 01:04:17;;;;;;;11.93;9.95;;;;;;;16.16;76.00;101260.94;699545;28;1708;-55
2021/09/08 01:04:38;;;;;;;12.18;9.40;;;;;;;16.19;75.91;101260.03;700251;28;1640;-53
2021/09/08 01:05:03;;;;;;;12.05;9.38;;;;;;;16.28;75.35;101254.59;699582;28;1378;-54
2021/09/08 01:05:26;;;;;;;12.93;9.68;;;;;;;16.34;75.10;101254.44;701862;28;1483;-54
2021/09/08 01:05:47;;;;;;;11.95;9.63;;;;;;;16.36;75.26;101256.19;701555;28;3289;-55
2021/09/08 01:06:09;;;;;;;11.55;9.68;;;;;;;16.36;75.28;101258.84;699821;28;5433;-54
2021/09/08 01:06:33;;;;;;;12.43;10.07;;;;;;;16.33;75.26;101260.63;701249;28;1272;-54
2021/09/08 01:06:58;;;;;;;12.07;9.48;;;;;;;16.39;74.72;101251.72;702535;28;2100;-51
2021/09/08 01:07:21;;;;;;;12.10;10.07;;;;;;;16.32;75.92;101258.91;699925;28;1745;-56
2021/09/08 01:07:45;;;;;;;13.02;9.55;;;;;;;16.26;76.01;101245.81;700070;28;1023;-51
2021/09/08 01:08:07;;;;;;;11.65;9.65;;;;;;;16.10;76.28;101255.81;699441;28;1579;-54
2021/09/08 01:08:27;;;;;;;11.98;9.82;;;;;;;16.05;76.25;101260.28;699319;28;3840;-56
2021/09/08 01:08:48;;;;;;;11.63;9.53;;;;;;;16.13;75.94;101252.22;699326;28;1643;-53
2021/09/08 01:09:11;;;;;;;11.57;9.90;;;;;;;16.19;75.90;101254.75;698667;28;4610;-56
2021/09/08 01:09:32;;;;;;;12.02;9.40;;;;;;;16.14;76.34;101256.59;698430;28;1641;-56
2021/09/08 01:09:54;;;;;;;11.93;9.50;;;;;;;16.07;76.90;101254.97;699653;28;1359;-52
2021/09/08 01:10:14;;;;;;;11.23;9.77;;;;;;;16.02;76.53;101256.81;700294;28;1197;-51
2021/09/08 01:10:36;;;;;;;12.27;9.55;;;;;;;16.10;75.97;101254.91;699218;28;1634;-53
2021/09/08 01:10:57;;;;;;;11.30;9.20;;;;;;;16.19;75.67;101254.75;699884;28;1890;-52
2021/09/08 01:11:21;;;;;;;11.93;10.05;;;;;;;16.21;75.99;101246.81;699643;28;1834;-52
2021/09/08 01:11:43;;;;;;;12.93;9.40;;;;;;;16.17;76.32;101256.53;698899;28;3890;-55
2021/09/08 01:12:04;;;;;;;12.07;9.97;;;;;;;16.19;76.32;101256.53;699224;28;1830;-56
2021/09/08 01:12:25;;;;;;;12.35;9.75;;;;;;;16.09;76.49;101253.16;699213;28;4508;-54
2021/09/08 01:12:47;;;;;;;12.82;9.73;;;;;;;15.99;76.66;101250.72;700367;28;1197;-50
2021/09/08 01:13:11;;;;;;;11.88;9.80;;;;;;;15.93;77.43;101248.16;699388;28;1367;-54
2021/09/08 01:13:33;;;;;;;12.85;10.20;;;;;;;15.90;77.25;101250.88;700436;28;1602;-55
2021/09/08 01:13:53;;;;;;;13.57;9.90;;;;;;;15.91;77.36;101244.72;698745;28;1470;-52
2021/09/08 01:14:15;;;;;;;14.38;9.90;;;;;;;15.94;76.81;101252.56;699263;28;3815;-56
2021/09/08 01:14:35;;;;;;;14.30;9.87;;;;;;;15.97;77.10;101255.13;698653;28;1633;-55
2021/09/08 01:14:56;;;;;;;11.38;9.55;;;;;;;16.01;76.88;101245.41;699096;28;3604;-52
2021/09/08 01:15:17;;;;;;;11.45;9.63;;;;;;;15.96;77.22;101250.78;698509;28;4392;-54
2021/09/08 01:15:38;;;;;;;11.97;9.73;;;;;;;15.92;77.96;101249.09;700204;28;1385;-53
2021/09/08 01:16:01;;;;;;;13.00;10.17;;;;;;;15.88;77.57;101255.31;699517;28;1742;-54
2021/09/08 01:16:22;;;;;;;12.07;9.80;;;;;;;15.91;77.45;101247.34;699340;28;1680;-54
2021/09/08 01:16:42;;;;;;;12.10;10.05;;;;;;;15.99;76.48;101245.44;700699;28;1805;-56
2021/09/08 01:17:03;;;;;;;11.63;9.80;;;;;;;16.08;75.96;101247.03;700114;28;3388;-55
2021/09/08 01:17:23;;;;;;;11.57;10.10;;;;;;;16.16;75.98;101249.53;700488;28;3910;-51
2021/09/08 01:17:44;;;;;;;12.00;9.63;;;;;;;16.10;76.45;101244.34;700989;28;1748;-56
2021/09/08 01:18:05;;;;;;;12.65;9.68;;;;;;;16.09;76.61;101247.88;700216;28;1096;-52
2021/09/08 01:18:25;;;;;;;12.27;9.70;;;;;;;15.98;76.52;101243.69;699388;28;4475;-54
2021/09/08 01:18:46;;;;;;;13.77;9.70;;;;;;;15.92;76.88;101246.44;699644;28;1384;-55
2021/09/08 01:19:06;;;;;;;11.38;9.35;;;;;;;15.91;76.63;101243.81;699839;28;1564;-55
2021/09/08 01:19:26;;;;;;;11.57;9.47;;;;;;;15.96;76.81;101250.78;698892;28;1667;-53
2021/09/08 01:19:47;;;;;;;11.13;9.48;;;;;;;15.99;76.51;101245.44;699357;28;3575;-53
2021/09/08 01:20:08;;;;;;;11.23;9.30;;;;;;;16.02;76.76;101249.78;698433;28;2483;-54
2021/09/08 01:20:28;;;;;;;11.15;9.38;;;;;;;16.00;76.68;101244.56;698869;28;1494;-51
2021/09/08 01:20:49;;;;;;;11.68;9.35;;;;;;;15.98;76.75;101243.69;699051;28;1455;-55
2021/09/08 01:21:09;;;;;;;11.82;9.63;;;;;;;15.94;77.58;101242.00;698461;28;4493;-56
2021/09/08 01:21:30;;;;;;;11.57;9.57;;;;;;;15.89;77.02;101243.84;698262;28;1459;-54
2021/09/08 01:21:51;;;;;;;12.57;9.60;;;;;;;15.86;77.52;101238.63;699670;28;1691;-53
2021/09/08 01:22:11;;;;;;;13.13;9.73;;;;;;;15.81;77.53;101245.75;699841;28;1564;-54
2021/09/08 01:22:33;;;;;;;11.65;9.73;;;;;;;15.87;76.66;101243.03;699262;28;1585;-53
2021/09/08 01:22:54;;;;;;;10.40;9.10;;;;;;;15.91;77.73;101244.72;698888;28;4426;-55
2021/09/08 01:23:14;;;;;;;11.27;9.67;;;;;;;15.85;77.61;101234.25;698799;28;2416;-52
2021/09/08 01:23:35;;;;;;;11.67;9.67;;;;;;;15.89;77.24;101243.84;696922;28;1516;-55
2021/09/08 01:23:55;;;;;;;11.90;9.63;;;;;;;15.89;76.85;101233.31;696347;28;2021;-54
2021/09/08 01:24:16;;;;;;;11.13;9.55;;;;;;;15.93;76.75;101236.75;696374;28;4398;-54
2021/09/08 01:24:39;;;;;;;10.27;9.03;;;;;;;15.99;77.29;101234.88;696961;28;1574;-54
2021/09/08 01:25:00;;;;;;;12.02;9.48;;;;;;;15.96;77.86;101244.63;697081;28;1331;-55
2021/09/08 01:25:23;;;;;;;11.93;9.27;;;;;;;15.85;77.82;101238.66;698236;28;1417;-54
2021/09/08 01:25:43;;;;;;;11.63;9.70;;;;;;;15.80;77.16;101236.13;699349;28;4142;-55
2021/09/08 01:26:04;;;;;;;11.27;9.57;;;;;;;15.78;76.80;101232.59;699392;28;2015;-54
2021/09/08 01:26:24;;;;;;;11.30;8.93;;;;;;;15.83;77.11;101239.56;699529;28;1583;-55
2021/09/08 01:26:46;;;;;;;11.98;9.02;;;;;;;15.93;76.74;101237.63;698625;28;1567;-55
2021/09/08 01:27:07;;;;;;;11.65;9.60;;;;;;;15.96;77.65;101236.69;699289;28;1380;-52
2021/09/08 01:27:27;;;;;;;11.83;9.60;;;;;;;15.93;76.68;101231.50;698454;28;4406;-51
2021/09/08 01:27:50;;;;;;;10.93;9.23;;;;;;;15.99;76.79;101236.63;700156;28;1617;-53
2021/09/08 01:28:11;;;;;;;11.35;9.52;;;;;;;15.91;77.27;101236.78;699530;28;1782;-52
2021/09/08 01:28:31;;;;;;;11.60;9.40;;;;;;;15.91;76.62;101234.16;698592;28;3493;-53
2021/09/08 01:28:51;;;;;;;11.70;9.13;;;;;;;15.89;77.27;101235.94;699207;28;4261;-52
2021/09/08 01:29:12;;;;;;;13.13;9.15;;;;;;;15.87;76.95;101235.09;699100;28;1844;-54
2021/09/08 01:29:32;;;;;;;12.20;9.47;;;;;;;15.94;76.69;101235.88;699456;28;2598;-54
2021/09/08 01:29:53;;;;;;;10.98;9.23;;;;;;;15.96;76.34;101237.59;700142;28;1248;-53
2021/09/08 01:30:19;;;;;;;11.73;9.53;;;;;;;15.94;77.66;101228.81;698520;28;4423;-54
2021/09/08 01:30:41;;;;;;;11.43;9.23;;;;;;;15.88;76.54;101235.97;698678;28;1427;-52
2021/09/08 01:31:02;;;;;;;12.15;9.40;;;;;;;15.90;76.17;101236.81;698699;28;1534;-52
2021/09/08 01:31:26;;;;;;;11.40;9.30;;;;;;;15.89;77.50;101230.66;699318;28;3079;-54
2021/09/08 01:31:58;;;;;;;11.60;9.63;;;;;;;15.87;77.10;101237.75;698579;28;1758;-54
2021/09/08 01:32:19;;;;;;;11.85;9.30;;;;;;;15.87;77.80;101236.84;698639;28;1399;-54
2021/09/08 01:32:39;;;;;;;12.23;9.80;;;;;;;15.82;77.52;101235.19;698739;28;1744;-55
2021/09/08 01:33:01;;;;;;;11.60;9.80;;;;;;;15.92;76.77;101235.00;700290;28;1716;-52
2021/09/08 01:33:22;;;;;;;11.68;9.60;;;;;;;15.96;76.50;101232.31;699488;28;4399;-55
2021/09/08 01:33:43;;;;;;;11.68;9.20;;;;;;;16.02;76.05;101231.34;699759;28;1064;-53
2021/09/08 01:34:04;;;;;;;11.00;9.27;;;;;;;15.96;76.37;101232.31;698190;28;3472;-55
2021/09/08 01:34:26;;;;;;;12.45;9.93;;;;;;;15.92;75.85;101233.28;698366;28;1993;-52
2021/09/08 01:34:51;;;;;;;12.93;10.05;;;;;;;15.92;76.56;101232.38;698408;28;3109;-51
2021/09/08 01:35:11;;;;;;;12.68;9.68;;;;;;;15.88;76.70;101231.59;699653;28;1772;-54
2021/09/08 01:35:32;;;;;;;12.15;9.65;;;;;;;15.84;77.44;101232.53;698619;28;1839;-54
2021/09/08 01:35:52;;;;;;;11.60;9.70;;;;;;;15.80;77.29;101225.56;699344;28;1640;-55
2021/09/08 01:36:13;;;;;;;11.20;9.55;;;;;;;15.79;77.23;101236.97;699331;28;4410;-54
2021/09/08 01:36:41;;;;;;;12.07;9.70;;;;;;;15.79;77.20;101236.97;700203;28;1422;-55
2021/09/08 01:37:01;;;;;;;12.50;9.55;;;;;;;15.85;76.69;101239.53;699222;28;3801;-54
2021/09/08 01:37:21;;;;;;;12.77;9.37;;;;;;;15.95;76.14;101235.84;699008;28;1812;-54
2021/09/08 01:37:42;;;;;;;11.63;9.43;;;;;;;15.93;77.09;101234.97;697811;28;1495;-52
2021/09/08 01:38:03;;;;;;;12.47;9.43;;;;;;;15.86;76.51;101236.00;699114;28;1606;-56
2021/09/08 01:38:23;;;;;;;10.80;9.00;;;;;;;15.90;76.42;101235.03;700342;28;1977;-53
2021/09/08 01:38:43;;;;;;;10.35;8.88;;;;;;;15.99;75.89;101232.25;700199;28;1375;-55
2021/09/08 01:39:04;;;;;;;11.77;9.37;;;;;;;16.02;76.22;101233.97;698242;28;1441;-56
2021/09/08 01:39:24;;;;;;;12.65;9.80;;;;;;;16.07;75.76;101241.78;698913;28;4526;-54
2021/09/08 01:39:45;;;;;;;12.33;9.23;;;;;;;16.13;75.01;101239.03;699238;28;3676;-54
2021/09/08 01:40:06;;;;;;;11.73;9.50;;;;;;;16.14;75.48;101240.78;698420;28;1499;-55
2021/09/08 01:40:26;;;;;;;12.15;9.50;;;;;;;16.10;76.42;101237.34;698864;28;3813;-53
2021/09/08 01:40:47;;;;;;;11.83;9.60;;;;;;;16.07;75.95;101233.88;699441;28;1435;-55